Time;durP1;ratioP1;P1;durP2;ratioP2;P2;SDS_P1;SDS_P2;PMS_P1;PMS_P2;Temp;Humidity;BMP_temperature;BMP_pressure;BME280_temperature;BME280_humidity;BME280_pressure;Samples;Min_cycle;Max_cycle;Signal;HPM_P1;HPM_P2
2022/05/03 00:00:04;;;;;;;3.97;1.83;;;;;;;9.28;68.30;101885.84;5046894;28;20145;-52
2022/05/03 00:02:44;;;;;;;6.30;2.15;;;;;;;9.30;67.82;101878.75;5051825;28;20048;-52
2022/05/03 00:05:20;;;;;;;4.25;2.08;;;;;;;9.15;68.95;101880.28;5049127;28;20107;-48
2022/05/03 00:07:57;;;;;;;4.57;2.08;;;;;;;9.08;69.27;101878.81;5048232;28;20041;-48
2022/05/03 00:10:31;;;;;;;5.43;2.22;;;;;;;9.13;69.27;101876.84;5050903;28;20053;-51
2022/05/03 00:13:04;;;;;;;4.40;2.13;;;;;;;9.17;69.46;101878.41;5051311;28;20487;-51
2022/05/03 00:15:35;;;;;;;6.03;2.03;;;;;;;9.22;69.42;101870.38;5051527;28;20045;-50
2022/05/03 00:18:05;;;;;;;5.65;2.22;;;;;;;9.28;69.45;101868.31;5051810;28;20055;-51
2022/05/03 00:20:34;;;;;;;4.10;1.90;;;;;;;9.25;69.86;101867.59;5055470;28;20124;-49
2022/05/03 00:23:04;;;;;;;5.07;2.10;;;;;;;9.21;70.21;101859.00;5055438;28;20041;-50
2022/05/03 00:25:33;;;;;;;6.85;2.65;;;;;;;9.13;70.22;101864.59;5053990;28;20765;-48
2022/05/03 00:28:03;;;;;;;6.50;2.50;;;;;;;9.25;70.11;101870.22;5049881;28;20179;-51
2022/05/03 00:30:32;;;;;;;4.93;2.15;;;;;;;9.16;70.66;101871.44;5053906;28;20440;-48
2022/05/03 00:33:02;;;;;;;5.55;2.15;;;;;;;9.18;70.91;101868.78;5055466;28;20060;-47
2022/05/03 00:35:31;;;;;;;9.15;2.40;;;;;;;9.15;71.64;101869.78;5055213;28;20506;-47
2022/05/03 00:37:59;;;;;;;4.38;2.05;;;;;;;9.03;71.94;101867.66;5052444;28;20049;-49
2022/05/03 00:40:33;;;;;;;4.38;2.13;;;;;;;8.92;72.00;101861.09;5051723;28;20052;-50
2022/05/03 00:43:15;;;;;;;4.57;2.28;;;;;;;8.99;71.61;101868.72;5052438;28;20053;-49
2022/05/03 00:45:46;;;;;;;5.68;2.45;;;;;;;9.00;71.66;101863.41;5054160;28;20049;-47
2022/05/03 00:48:41;;;;;;;5.40;2.42;;;;;;;8.86;72.20;101857.88;5051420;28;20664;-48
2022/05/03 00:51:14;;;;;;;6.00;2.33;;;;;;;8.67;73.39;101853.41;5054380;28;20041;-47
2022/05/03 00:53:58;;;;;;;8.63;2.85;;;;;;;8.74;73.65;101856.59;5050173;28;20053;-48
2022/05/03 00:56:53;;;;;;;5.85;2.63;;;;;;;8.58;74.10;101853.78;5052648;28;20523;-53
2022/05/03 00:59:41;;;;;;;5.95;3.10;;;;;;;8.36;74.72;101853.75;5054713;28;20500;-50
2022/05/03 01:02:10;;;;;;;6.65;2.72;;;;;;;8.41;74.67;101851.78;5054466;28;20045;-48
2022/05/03 01:04:50;;;;;;;5.72;2.90;;;;;;;8.45;74.73;101853.41;5054798;28;20362;-49
2022/05/03 01:07:28;;;;;;;6.78;2.90;;;;;;;8.42;74.12;101853.50;5054995;28;20425;-48
2022/05/03 01:10:05;;;;;;;6.70;3.03;;;;;;;8.36;75.03;101857.22;5051876;28;20049;-47
2022/05/03 01:12:57;;;;;;;7.05;2.80;;;;;;;8.45;74.44;101856.03;5049429;28;20066;-47
2022/05/03 01:15:31;;;;;;;6.45;2.70;;;;;;;8.51;74.64;101855.78;5054437;28;20053;-51
2022/05/03 01:18:20;;;;;;;6.65;3.00;;;;;;;8.46;74.10;101858.56;5054290;28;20060;-50
2022/05/03 01:21:02;;;;;;;7.90;2.80;;;;;;;8.52;74.03;101860.13;5054472;28;20061;-50
2022/05/03 01:24:11;;;;;;;5.68;2.85;;;;;;;8.52;74.74;101856.63;5054657;28;20043;-48
2022/05/03 01:27:15;;;;;;;6.90;2.85;;;;;;;8.36;75.22;101859.84;5053793;28;20036;-46
2022/05/03 01:29:46;;;;;;;7.10;2.88;;;;;;;8.36;75.72;101859.00;5053287;28;20055;-47
2022/05/03 01:32:19;;;;;;;5.93;2.45;;;;;;;8.27;75.59;101860.19;5051574;28;20057;-50
2022/05/03 01:34:48;;;;;;;7.03;3.25;;;;;;;8.25;75.68;101855.03;5050549;28;20398;-49
2022/05/03 01:37:30;;;;;;;5.93;3.15;;;;;;;8.20;76.18;101861.38;5053679;28;20293;-52
2022/05/03 01:40:05;;;;;;;5.57;2.83;;;;;;;8.19;76.20;101860.50;5052854;28;20057;-53
2022/05/03 01:43:00;;;;;;;8.18;3.00;;;;;;;8.17;76.72;101854.47;5048081;28;20056;-48
2022/05/03 01:45:33;;;;;;;6.43;3.10;;;;;;;8.00;78.25;101844.63;5053326;28;20041;-53
2022/05/03 01:48:18;;;;;;;7.18;3.15;;;;;;;7.95;78.63;101850.06;5053809;28;20075;-49
2022/05/03 01:50:53;;;;;;;5.80;2.55;;;;;;;8.09;77.96;101848.66;5051647;28;20508;-47
2022/05/03 01:53:31;;;;;;;8.40;2.92;;;;;;;7.95;78.64;101855.28;5050408;28;20112;-47
2022/05/03 01:56:23;;;;;;;6.97;3.03;;;;;;;8.01;78.00;101848.13;5052697;28;20407;-48
2022/05/03 01:59:05;;;;;;;6.40;3.00;;;;;;;7.98;77.91;101850.84;5052047;28;20052;-48
2022/05/03 02:01:50;;;;;;;9.07;3.40;;;;;;;8.04;77.67;101848.84;5050447;28;20117;-50
2022/05/03 02:04:51;;;;;;;7.47;3.50;;;;;;;7.86;78.48;101849.56;5053122;28;20041;-47
2022/05/03 02:07:30;;;;;;;7.30;3.22;;;;;;;7.79;78.84;101859.41;5053761;28;20049;-50
2022/05/03 02:10:06;;;;;;;6.57;3.22;;;;;;;7.82;78.62;101856.66;5052111;28;20415;-53
2022/05/03 02:12:35;;;;;;;6.50;3.60;;;;;;;7.79;78.95;101848.94;5053354;28;20466;-50
2022/05/03 02:15:05;;;;;;;6.88;3.30;;;;;;;7.78;79.97;101845.47;5053454;28;20403;-50
2022/05/03 02:17:54;;;;;;;7.88;3.60;;;;;;;7.84;79.46;101846.13;5053402;28;20049;-47
2022/05/03 02:20:32;;;;;;;8.55;3.67;;;;;;;7.77;80.12;101846.38;5053328;28;20052;-46
2022/05/03 02:23:25;;;;;;;7.35;3.47;;;;;;;7.76;80.65;101846.44;5053289;28;20048;-49
2022/05/03 02:26:06;;;;;;;7.82;3.35;;;;;;;7.73;81.00;101838.66;5053610;28;20488;-51
2022/05/03 02:28:42;;;;;;;7.95;3.85;;;;;;;7.73;80.38;101846.53;5051334;28;20598;-49
2022/05/03 02:31:15;;;;;;;6.32;3.40;;;;;;;7.69;80.99;101837.94;5048808;28;20091;-47
2022/05/03 02:33:49;;;;;;;8.25;3.92;;;;;;;7.75;80.81;101840.31;5052091;28;20053;-49
2022/05/03 02:36:22;;;;;;;6.20;3.35;;;;;;;7.69;80.33;101842.31;5049264;28;20412;-48
2022/05/03 02:38:59;;;;;;;9.18;3.67;;;;;;;7.64;80.83;101839.03;5051387;28;20049;-47
2022/05/03 02:41:28;;;;;;;7.32;3.65;;;;;;;7.64;82.10;101844.28;5047857;28;20492;-48
2022/05/03 02:43:57;;;;;;;9.85;4.43;;;;;;;7.56;82.99;101847.16;5048755;28;20041;-52
2022/05/03 02:46:42;;;;;;;8.75;3.63;;;;;;;7.52;82.80;101848.19;5052739;28;20051;-47
2022/05/03 02:49:16;;;;;;;8.38;3.92;;;;;;;7.53;82.88;101848.13;5052443;28;20094;-49
2022/05/03 02:51:52;;;;;;;9.68;4.00;;;;;;;7.51;82.97;101842.09;5048221;28;20511;-49
2022/05/03 02:54:39;;;;;;;8.30;3.70;;;;;;;7.53;82.97;101840.25;5049576;28;20045;-47
2022/05/03 02:57:16;;;;;;;7.30;3.83;;;;;;;7.51;83.15;101841.22;5052287;28;20064;-48
2022/05/03 03:02:53;;;;;;;9.10;4.07;;;;;;;7.37;83.26;101842.56;5047628;28;20127;-50
2022/05/03 03:05:27;;;;;;;7.93;3.75;;;;;;;7.39;83.12;101835.53;5049853;28;20048;-46
2022/05/03 03:08:02;;;;;;;9.07;4.13;;;;;;;7.34;83.98;101834.84;5052699;28;20045;-52
2022/05/03 03:10:33;;;;;;;8.75;4.45;;;;;;;7.33;84.22;101840.97;5050044;28;20110;-51
2022/05/03 03:13:11;;;;;;;8.23;3.80;;;;;;;7.31;84.00;101834.97;5045226;28;20064;-48
2022/05/03 03:15:41;;;;;;;9.95;4.90;;;;;;;7.34;83.70;101849.69;5052237;28;20076;-47
2022/05/03 03:18:14;;;;;;;9.05;4.22;;;;;;;7.32;84.48;101838.41;5048137;28;20060;-49
2022/05/03 03:20:46;;;;;;;7.85;4.00;;;;;;;7.28;84.80;101842.94;5049881;28;20049;-50
2022/05/03 03:23:18;;;;;;;7.78;4.47;;;;;;;7.21;85.87;101849.25;5052107;28;20040;-51
2022/05/03 03:25:48;;;;;;;9.02;4.07;;;;;;;7.23;85.99;101850.91;5052141;28;20771;-51
2022/05/03 03:28:20;;;;;;;8.70;3.97;;;;;;;7.13;86.90;101844.31;5050691;28;20045;-48
2022/05/03 03:30:50;;;;;;;8.23;4.17;;;;;;;7.06;86.76;101848.03;5048264;28;20057;-51
2022/05/03 03:33:20;;;;;;;9.43;4.35;;;;;;;7.15;86.13;101847.72;5050330;28;20478;-48
2022/05/03 03:35:51;;;;;;;11.32;4.05;;;;;;;6.99;88.02;101852.59;5051872;28;20111;-46
2022/05/03 03:38:27;;;;;;;7.43;4.00;;;;;;;6.74;89.84;101842.13;5051620;28;20090;-51
2022/05/03 03:40:56;;;;;;;8.45;4.32;;;;;;;6.71;89.82;101848.31;5051533;28;20098;-50
2022/05/03 03:43:25;;;;;;;9.40;4.68;;;;;;;6.83;88.94;101844.44;5051121;28;20087;-48
2022/05/03 03:45:53;;;;;;;9.50;4.18;;;;;;;6.87;89.26;101839.94;5049534;28;20128;-49
2022/05/03 03:48:21;;;;;;;9.23;4.25;;;;;;;6.76;90.55;101837.69;5047675;28;20079;-46
2022/05/03 03:50:52;;;;;;;9.95;4.60;;;;;;;6.78;89.81;101843.75;5051644;28;20036;-48
2022/05/03 03:53:21;;;;;;;10.90;5.00;;;;;;;6.83;89.87;101848.81;5051721;28;20051;-51
2022/05/03 03:55:50;;;;;;;7.90;4.28;;;;;;;6.81;90.12;101846.25;5051808;28;20045;-47
2022/05/03 03:58:19;;;;;;;8.65;4.30;;;;;;;6.86;89.85;101843.50;5051592;28;20372;-45
2022/05/03 04:00:47;;;;;;;11.07;5.05;;;;;;;6.72;90.80;101847.41;5051536;28;20434;-49
2022/05/03 04:03:17;;;;;;;8.55;4.57;;;;;;;6.73;90.36;101843.03;5050720;28;20095;-49
2022/05/03 04:05:46;;;;;;;9.23;4.53;;;;;;;6.76;90.78;101851.63;5048392;28;20049;-48
2022/05/03 04:08:21;;;;;;;9.57;4.95;;;;;;;6.76;90.80;101849.03;5049563;28;20040;-50
2022/05/03 04:10:50;;;;;;;10.65;5.10;;;;;;;6.67;91.43;101848.47;5051598;28;20083;-50
2022/05/03 04:13:18;;;;;;;9.10;4.72;;;;;;;6.68;91.68;101837.09;5051526;28;20348;-50
2022/05/03 04:15:46;;;;;;;9.88;5.05;;;;;;;6.53;92.09;101839.31;5050775;28;20155;-47
2022/05/03 04:18:15;;;;;;;8.93;4.03;;;;;;;6.63;90.74;101844.25;5047582;28;20048;-48
2022/05/03 04:20:43;;;;;;;9.18;4.53;;;;;;;6.66;90.35;101844.16;5048876;28;20045;-48
2022/05/03 04:23:23;;;;;;;8.57;4.93;;;;;;;6.68;90.12;101852.78;5051356;28;20091;-49
2022/05/03 04:25:56;;;;;;;9.85;4.80;;;;;;;6.54;91.21;101846.22;5051437;28;20053;-48
2022/05/03 04:28:25;;;;;;;9.77;5.22;;;;;;;6.51;93.33;101851.56;5051580;28;20049;-50
2022/05/03 04:30:53;;;;;;;9.32;5.35;;;;;;;6.64;93.10;101856.41;5051549;28;20045;-46
2022/05/03 04:33:21;;;;;;;9.38;4.72;;;;;;;6.63;92.87;101855.56;5051162;28;20045;-51
2022/05/03 04:35:49;;;;;;;10.43;5.15;;;;;;;6.64;92.45;101851.16;5051179;28;20056;-50
2022/05/03 04:38:18;;;;;;;10.25;5.40;;;;;;;6.79;91.85;101857.66;5051140;28;20584;-49
2022/05/03 04:40:47;;;;;;;10.18;4.90;;;;;;;6.72;92.12;101852.66;5050836;28;20377;-54
2022/05/03 04:43:16;;;;;;;9.10;4.85;;;;;;;6.76;92.16;101856.00;5050731;28;20069;-48
2022/05/03 04:45:44;;;;;;;10.02;5.60;;;;;;;6.66;92.05;101860.69;5049439;28;20487;-47
2022/05/03 04:48:12;;;;;;;10.88;5.40;;;;;;;6.70;91.59;101858.81;5046216;28;20106;-47
2022/05/03 04:50:41;;;;;;;10.07;4.97;;;;;;;6.74;92.28;101857.81;5049858;28;20099;-49
2022/05/03 04:53:10;;;;;;;8.73;4.72;;;;;;;6.72;92.48;101857.88;5050786;28;20508;-50
2022/05/03 04:55:39;;;;;;;10.30;4.93;;;;;;;6.78;92.59;101867.28;5051329;28;20091;-52
2022/05/03 04:58:09;;;;;;;10.05;5.35;;;;;;;6.76;92.67;101867.31;5050543;28;20093;-51
2022/05/03 05:00:37;;;;;;;10.50;4.85;;;;;;;6.76;93.57;101872.56;5050993;28;20055;-50
2022/05/03 05:03:05;;;;;;;10.18;4.82;;;;;;;6.89;92.82;101873.00;5050973;28;20064;-48
2022/05/03 05:05:34;;;;;;;13.15;6.22;;;;;;;6.82;93.57;101875.88;5053456;28;20079;-49
2022/05/03 05:08:04;;;;;;;11.35;5.70;;;;;;;6.78;94.41;101888.19;5054709;28;20049;-51
2022/05/03 05:10:33;;;;;;;12.80;5.95;;;;;;;6.74;94.50;101882.19;5054598;28;20048;-47
2022/05/03 05:13:02;;;;;;;10.55;5.18;;;;;;;6.79;94.35;101886.41;5054542;28;20051;-51
2022/05/03 05:15:38;;;;;;;10.35;5.35;;;;;;;6.77;94.18;101881.25;5053300;28;20055;-50
2022/05/03 05:18:06;;;;;;;10.95;5.57;;;;;;;6.81;94.82;101882.84;5051055;28;20045;-53
2022/05/03 05:20:35;;;;;;;12.32;5.95;;;;;;;6.82;94.89;101889.81;5051846;28;20053;-47
2022/05/03 05:23:03;;;;;;;12.23;6.38;;;;;;;6.83;95.81;101888.91;5053523;28;20053;-48
2022/05/03 05:25:48;;;;;;;13.73;6.30;;;;;;;6.88;95.95;101892.19;5050334;28;20041;-51
2022/05/03 05:28:18;;;;;;;15.40;5.88;;;;;;;6.96;95.46;101891.09;5052227;28;20051;-51
2022/05/03 05:30:49;;;;;;;15.23;6.68;;;;;;;6.98;95.09;101884.94;5054088;28;20044;-48
2022/05/03 05:33:17;;;;;;;15.60;6.47;;;;;;;7.14;95.52;101887.84;5052382;28;20091;-48
2022/05/03 05:35:46;;;;;;;17.95;7.25;;;;;;;7.23;94.98;101882.31;5049477;28;20059;-50
2022/05/03 05:38:15;;;;;;;13.82;6.18;;;;;;;7.26;94.56;101887.44;5052095;28;20110;-51
2022/05/03 05:40:46;;;;;;;14.25;6.25;;;;;;;7.38;95.04;101890.56;5051263;28;20551;-52
2022/05/03 05:43:15;;;;;;;17.25;6.93;;;;;;;7.42;95.28;101889.53;5048571;28;20049;-50
2022/05/03 05:45:44;;;;;;;13.00;6.22;;;;;;;7.48;93.89;101891.91;5054241;28;20476;-52
2022/05/03 05:48:14;;;;;;;14.50;5.65;;;;;;;7.55;94.12;101880.34;5053943;28;20052;-47
2022/05/03 05:50:43;;;;;;;10.45;5.95;;;;;;;7.68;94.47;101891.22;5053661;28;20136;-49
2022/05/03 05:55:57;;;;;;;10.00;5.30;;;;;;;7.87;90.59;101888.78;5049389;28;20076;-49
2022/05/03 05:58:25;;;;;;;8.60;4.65;;;;;;;7.98;89.29;101888.38;5053071;28;20535;-50
2022/05/03 06:00:53;;;;;;;8.80;4.55;;;;;;;8.07;87.64;101889.78;5053509;28;20494;-47
2022/05/03 06:03:23;;;;;;;8.38;4.45;;;;;;;8.17;87.11;101888.53;5053483;28;20350;-52
2022/05/03 06:05:51;;;;;;;7.65;3.92;;;;;;;8.28;85.33;101888.97;5053814;28;20033;-52
2022/05/03 06:08:20;;;;;;;9.70;4.10;;;;;;;8.42;84.31;101890.19;5053411;28;20060;-49
2022/05/03 06:10:49;;;;;;;10.23;4.50;;;;;;;8.55;85.02;101891.47;5053061;28;20519;-49
2022/05/03 06:13:17;;;;;;;9.68;5.25;;;;;;;8.73;83.70;101895.09;5052716;28;20081;-50
2022/05/03 06:15:48;;;;;;;9.55;4.63;;;;;;;8.87;82.66;101891.91;5053319;28;20151;-50
2022/05/03 06:18:17;;;;;;;10.70;4.20;;;;;;;8.91;83.35;101895.25;5053196;28;20053;-49
2022/05/03 06:20:46;;;;;;;8.35;4.00;;;;;;;8.99;83.35;101892.34;5049772;28;20407;-48
2022/05/03 06:23:15;;;;;;;11.73;4.13;;;;;;;9.17;78.17;101894.16;5050264;28;20044;-51
2022/05/03 06:25:44;;;;;;;12.32;4.25;;;;;;;9.34;77.02;101900.47;5053183;28;20055;-50
2022/05/03 06:28:12;;;;;;;9.15;3.95;;;;;;;9.42;76.26;101898.34;5052841;28;20045;-49
2022/05/03 06:30:41;;;;;;;8.35;3.83;;;;;;;9.56;76.67;101897.78;5052995;28;20052;-47
2022/05/03 06:33:10;;;;;;;9.30;3.80;;;;;;;9.70;75.60;101905.88;5053185;28;20492;-46
2022/05/03 06:35:38;;;;;;;7.70;3.88;;;;;;;9.91;74.13;101896.19;5052562;28;20079;-49
2022/05/03 06:38:08;;;;;;;11.02;4.00;;;;;;;10.07;73.29;101898.94;5049147;28;20125;-47
2022/05/03 06:40:36;;;;;;;6.85;2.75;;;;;;;10.22;69.89;101892.13;5050931;28;20091;-48
2022/05/03 06:43:05;;;;;;;9.55;3.28;;;;;;;10.36;68.50;101885.41;5052886;28;20110;-48
2022/05/03 06:45:34;;;;;;;6.75;2.88;;;;;;;10.55;66.37;101895.88;5052563;28;20136;-50
2022/05/03 06:48:05;;;;;;;6.57;2.75;;;;;;;10.69;67.39;101890.81;5052704;28;20077;-51
2022/05/03 06:50:34;;;;;;;5.63;2.50;;;;;;;10.93;63.57;101896.63;5052668;28;20434;-50
2022/05/03 06:53:02;;;;;;;5.38;2.40;;;;;;;11.11;60.79;101899.28;5052700;28;20488;-49
2022/05/03 06:55:32;;;;;;;7.63;2.90;;;;;;;11.30;60.55;101902.69;5052187;28;20044;-47
2022/05/03 06:58:00;;;;;;;6.68;2.30;;;;;;;11.46;59.16;101901.88;5052313;28;20444;-47
2022/05/03 07:00:28;;;;;;;7.55;2.35;;;;;;;11.72;59.17;101897.03;5052341;28;20056;-49
2022/05/03 07:02:57;;;;;;;4.45;2.08;;;;;;;11.89;55.67;101901.38;5052632;28;20846;-46
2022/05/03 07:05:25;;;;;;;4.30;2.00;;;;;;;11.99;56.36;101903.47;5052555;28;20140;-47
2022/05/03 07:07:53;;;;;;;5.55;2.25;;;;;;;12.14;54.64;101900.94;5052474;28;20045;-49
2022/05/03 07:10:22;;;;;;;6.65;2.65;;;;;;;12.33;54.50;101901.63;5052348;28;20053;-48
2022/05/03 07:12:51;;;;;;;4.93;2.40;;;;;;;12.44;54.81;101897.53;5052357;28;20111;-49
2022/05/03 07:15:19;;;;;;;6.07;2.65;;;;;;;12.63;55.45;101900.81;5052270;28;20136;-48
2022/05/03 07:23:19;;;;;;;5.28;2.55;;;;;;;13.16;54.93;101901.28;5051872;28;20048;-52
2022/05/03 07:25:48;;;;;;;7.97;3.00;;;;;;;13.34;52.54;101904.59;5052137;28;20045;-49
2022/05/03 07:28:17;;;;;;;5.53;2.83;;;;;;;13.53;52.56;101901.75;5051700;28;20073;-50
2022/05/03 07:30:46;;;;;;;6.70;2.67;;;;;;;13.71;51.17;101906.00;5052122;28;20053;-47
2022/05/03 07:33:14;;;;;;;5.97;2.53;;;;;;;13.80;51.38;101897.50;5049315;28;20048;-48
2022/05/03 07:35:42;;;;;;;6.55;2.83;;;;;;;13.98;49.90;101911.38;5048662;28;20045;-53
2022/05/03 07:38:13;;;;;;;7.07;2.95;;;;;;;14.08;49.55;101904.53;5051510;28;20044;-51
2022/05/03 07:40:41;;;;;;;5.55;2.88;;;;;;;14.28;50.29;101905.94;5047796;28;20511;-51
2022/05/03 07:43:09;;;;;;;5.15;2.60;;;;;;;14.53;50.09;101909.63;5047091;28;20135;-52
2022/05/03 07:45:39;;;;;;;6.43;3.50;;;;;;;14.68;48.78;101907.81;5049081;28;20049;-49
2022/05/03 07:48:08;;;;;;;6.72;3.17;;;;;;;14.69;49.29;101914.81;5046892;28;20518;-50
2022/05/03 07:50:36;;;;;;;7.53;3.63;;;;;;;14.91;50.21;101918.69;5051711;28;20487;-52
2022/05/03 07:53:04;;;;;;;8.80;3.08;;;;;;;15.02;48.45;101919.69;5051743;28;20045;-49
2022/05/03 07:55:33;;;;;;;8.95;3.22;;;;;;;15.22;49.21;101917.47;5051626;28;20052;-48
2022/05/03 07:58:01;;;;;;;7.03;3.20;;;;;;;15.35;50.45;101917.47;5051403;28;20369;-55
2022/05/03 08:00:30;;;;;;;7.50;4.18;;;;;;;15.60;49.31;101921.94;5050091;28;20059;-51
2022/05/03 08:02:59;;;;;;;7.32;3.85;;;;;;;15.84;49.51;101913.25;5051288;28;20140;-51
2022/05/03 08:05:28;;;;;;;6.53;3.85;;;;;;;16.00;48.97;101910.38;5045169;28;20056;-52
2022/05/03 08:07:56;;;;;;;7.63;4.28;;;;;;;16.01;47.22;101910.25;5048586;28;20507;-51
2022/05/03 08:10:24;;;;;;;10.98;4.40;;;;;;;15.91;47.98;101917.19;5051700;28;20080;-48
2022/05/03 08:12:53;;;;;;;8.63;4.80;;;;;;;15.88;47.70;101920.91;5051460;28;20048;-50
2022/05/03 08:15:22;;;;;;;9.10;4.53;;;;;;;16.02;47.68;101911.97;5051212;28;20499;-47
2022/05/03 08:17:51;;;;;;;8.65;4.70;;;;;;;16.18;47.82;101914.38;5051099;28;20056;-49
2022/05/03 08:20:21;;;;;;;8.18;5.15;;;;;;;16.07;47.67;101908.13;5050882;28;20160;-51
2022/05/03 08:22:49;;;;;;;9.30;5.55;;;;;;;16.08;48.20;101910.66;5050780;28;20049;-48
2022/05/03 08:25:18;;;;;;;10.68;5.18;;;;;;;16.44;49.36;101916.06;5047701;28;20045;-48
2022/05/03 08:27:46;;;;;;;9.20;5.45;;;;;;;16.64;48.26;101912.78;5045419;28;20434;-51
2022/05/03 08:30:14;;;;;;;9.45;5.82;;;;;;;16.65;47.31;101909.19;5049751;28;20438;-48
2022/05/03 08:32:42;;;;;;;9.05;5.53;;;;;;;16.94;48.92;101915.97;5049903;28;20512;-50
2022/05/03 08:35:10;;;;;;;12.52;6.00;;;;;;;16.97;47.12;101916.56;5047077;28;20056;-50
2022/05/03 08:43:12;;;;;;;10.07;5.70;;;;;;;17.33;47.45;101908.56;5055117;28;20071;-47
2022/05/03 08:45:45;;;;;;;10.98;6.57;;;;;;;17.58;47.24;101908.34;5055305;28;20037;-48
2022/05/03 08:48:16;;;;;;;10.65;6.35;;;;;;;17.72;46.71;101915.28;5054786;28;20048;-51
2022/05/03 08:50:47;;;;;;;9.63;6.32;;;;;;;17.94;46.79;101921.56;5055034;28;20060;-48
2022/05/03 08:53:20;;;;;;;11.50;7.07;;;;;;;18.22;45.80;101914.88;5054237;28;20091;-47
2022/05/03 08:55:50;;;;;;;11.30;6.50;;;;;;;17.93;46.46;101919.88;5052986;28;20068;-48
2022/05/03 08:58:20;;;;;;;11.10;6.53;;;;;;;18.17;47.12;101913.56;5054452;28;20480;-47
2022/05/03 09:00:49;;;;;;;10.25;7.00;;;;;;;18.68;46.12;101904.94;5054545;28;20387;-47
2022/05/03 09:03:17;;;;;;;10.77;6.78;;;;;;;18.41;45.15;101914.22;5049980;28;20123;-51
2022/05/03 09:05:48;;;;;;;10.60;6.80;;;;;;;18.29;46.82;101917.06;5050556;28;20394;-53
2022/05/03 09:08:23;;;;;;;13.23;7.80;;;;;;;18.48;44.68;101919.91;5052599;28;20044;-49
2022/05/03 09:10:52;;;;;;;11.45;7.25;;;;;;;18.56;45.64;101920.09;5050003;28;20045;-50
2022/05/03 09:13:42;;;;;;;13.93;7.40;;;;;;;18.92;45.29;101914.53;5052875;28;20111;-52
2022/05/03 09:16:12;;;;;;;11.43;8.05;;;;;;;19.26;44.99;101917.03;5054012;28;20136;-50
2022/05/03 09:18:42;;;;;;;13.98;7.50;;;;;;;19.51;43.44;101920.25;5054267;28;20403;-51
2022/05/03 09:24:12;;;;;;;10.57;6.85;;;;;;;19.50;44.60;101916.75;5054277;28;20080;-51
2022/05/03 09:26:41;;;;;;;11.95;7.80;;;;;;;19.48;44.20;101917.84;5086805;28;20064;-49
2022/05/03 09:29:10;;;;;;;10.85;7.82;;;;;;;19.67;43.92;101915.25;5051649;28;20499;-48
2022/05/03 09:31:41;;;;;;;13.77;8.05;;;;;;;19.73;43.18;101913.91;5050797;28;20111;-48
2022/05/03 09:34:23;;;;;;;11.27;6.82;;;;;;;19.86;43.44;101913.69;5053249;28;20522;-48
2022/05/03 09:36:53;;;;;;;11.75;7.20;;;;;;;19.86;42.58;101911.84;5049743;28;20503;-50
2022/05/03 09:39:41;;;;;;;12.88;8.10;;;;;;;19.53;42.73;101911.13;5050700;28;20107;-48
2022/05/03 09:42:12;;;;;;;10.68;6.95;;;;;;;19.50;43.60;101913.25;5053544;28;20467;-52
2022/05/03 09:44:53;;;;;;;12.10;8.05;;;;;;;19.29;44.60;101906.09;5053514;28;20065;-50
2022/05/03 09:47:23;;;;;;;12.30;7.60;;;;;;;19.44;44.39;101906.59;5053698;28;20067;-51
2022/05/03 09:49:51;;;;;;;12.48;7.88;;;;;;;19.46;44.72;101907.31;5053354;28;20496;-52
2022/05/03 09:52:27;;;;;;;12.25;8.07;;;;;;;19.47;44.05;101909.00;5051444;28;20045;-50
2022/05/03 09:55:03;;;;;;;15.25;7.78;;;;;;;19.37;44.99;101913.44;5049651;28;20091;-49
2022/05/03 09:57:34;;;;;;;12.48;8.45;;;;;;;19.54;43.91;101901.31;5052136;28;20060;-51
2022/05/03 10:00:04;;;;;;;13.55;7.93;;;;;;;18.83;45.31;101905.47;5050117;28;20072;-53
2022/05/03 10:02:33;;;;;;;11.70;7.45;;;;;;;19.07;45.52;101909.75;5051716;28;20102;-52
2022/05/03 10:05:01;;;;;;;12.60;8.15;;;;;;;19.01;45.73;101905.78;5052277;28;20175;-53
2022/05/03 10:07:30;;;;;;;11.30;7.22;;;;;;;19.31;46.26;101898.81;5049809;28;20056;-52
2022/05/03 10:10:02;;;;;;;13.70;8.05;;;;;;;19.29;45.04;101906.09;5052587;28;20094;-48
2022/05/03 10:12:30;;;;;;;12.93;8.38;;;;;;;19.41;45.01;101897.06;5053269;28;20566;-48
2022/05/03 10:14:58;;;;;;;13.23;7.50;;;;;;;19.37;45.82;101910.78;5053546;28;20053;-50
2022/05/03 10:23:21;;;;;;;12.15;7.97;;;;;;;18.91;46.63;101902.22;5053221;28;20045;-51
2022/05/03 10:25:56;;;;;;;15.43;8.98;;;;;;;19.20;45.94;101896.22;5053479;28;20043;-48
2022/05/03 10:28:25;;;;;;;10.95;7.80;;;;;;;19.20;46.36;101896.22;5053265;28;20099;-51
2022/05/03 10:31:23;;;;;;;12.65;8.35;;;;;;;19.45;46.12;101888.78;5053359;28;20044;-52
2022/05/03 10:33:52;;;;;;;13.98;7.75;;;;;;;19.23;46.31;101896.78;5010886;28;20137;-50
2022/05/03 10:36:43;;;;;;;13.95;7.97;;;;;;;19.22;48.19;101891.59;5036031;28;20085;-50
2022/05/03 10:39:25;;;;;;;12.95;8.10;;;;;;;19.02;48.13;101887.94;5049712;28;20088;-51
2022/05/03 10:41:57;;;;;;;13.20;9.27;;;;;;;18.90;47.77;101892.53;5052286;28;20091;-49
2022/05/03 10:44:42;;;;;;;11.63;7.80;;;;;;;18.98;48.31;101892.72;5049564;28;20049;-52
2022/05/03 10:47:11;;;;;;;13.52;8.50;;;;;;;19.20;46.81;101880.22;5051873;28;20124;-49
2022/05/03 10:50:17;;;;;;;13.55;8.38;;;;;;;19.76;48.38;101881.59;5052543;28;20053;-49
2022/05/03 10:53:06;;;;;;;10.93;7.95;;;;;;;20.12;46.65;101874.00;5052610;28;20048;-52
2022/05/03 10:55:37;;;;;;;13.13;8.43;;;;;;;20.37;45.28;101877.97;5049243;28;20081;-50
2022/05/03 10:58:25;;;;;;;13.15;8.68;;;;;;;20.10;45.28;101875.97;5047003;28;20187;-51
2022/05/03 11:01:04;;;;;;;12.63;8.32;;;;;;;20.17;46.47;101873.59;5052660;28;20055;-51
2022/05/03 11:03:34;;;;;;;13.13;7.95;;;;;;;20.17;46.19;101874.44;5051632;28;20525;-50
2022/05/03 11:06:32;;;;;;;12.15;7.75;;;;;;;19.81;46.99;101866.06;5051878;28;20045;-51
2022/05/03 11:09:10;;;;;;;14.02;8.15;;;;;;;19.81;47.04;101863.41;5049226;28;20120;-50
2022/05/03 11:12:08;;;;;;;12.02;6.90;;;;;;;19.71;46.95;101868.66;5050962;28;20060;-51
2022/05/03 11:14:54;;;;;;;11.48;7.57;;;;;;;19.63;46.62;101860.47;5028720;28;20107;-50
2022/05/03 11:17:23;;;;;;;12.98;7.65;;;;;;;20.01;46.96;101855.44;5050660;28;20040;-50
2022/05/03 11:19:58;;;;;;;11.40;7.40;;;;;;;20.31;46.57;101857.16;5048148;28;20045;-53
2022/05/03 11:22:33;;;;;;;10.73;7.43;;;;;;;20.53;45.42;101832.00;5050262;28;20060;-52
2022/05/03 11:25:07;;;;;;;11.70;7.22;;;;;;;20.81;45.40;101848.16;5052010;28;20049;-49
2022/05/03 11:27:36;;;;;;;11.07;7.30;;;;;;;21.09;43.92;101843.75;5051994;28;20049;-50
2022/05/03 11:30:09;;;;;;;11.02;6.43;;;;;;;21.57;43.70;101841.09;5052074;28;20397;-52
2022/05/03 11:32:39;;;;;;;10.73;7.47;;;;;;;21.82;41.63;101833.34;5051902;28;20547;-52
2022/05/03 11:35:10;;;;;;;9.75;6.53;;;;;;;21.98;41.64;101829.97;5052225;28;20055;-52
2022/05/03 11:37:47;;;;;;;10.63;6.95;;;;;;;22.28;41.17;101821.56;5052014;28;20503;-50
2022/05/03 11:40:20;;;;;;;11.70;6.72;;;;;;;22.38;40.80;101826.06;5050726;28;20052;-51
2022/05/03 11:42:49;;;;;;;10.00;6.18;;;;;;;22.60;40.63;101822.88;5046731;28;20070;-52
2022/05/03 11:45:20;;;;;;;12.05;7.30;;;;;;;22.81;40.09;101827.06;5049399;28;20049;-52
2022/05/03 11:47:50;;;;;;;10.55;6.78;;;;;;;22.83;39.14;101824.22;5051946;28;20033;-52
2022/05/03 11:56:04;;;;;;;10.27;6.85;;;;;;;21.27;40.96;101826.94;5047880;28;20773;-53
2022/05/03 11:58:36;;;;;;;10.45;6.00;;;;;;;21.53;40.64;101832.50;5047153;28;20159;-51
2022/05/03 12:01:13;;;;;;;10.38;6.07;;;;;;;21.43;40.56;101823.63;5048808;28;20045;-51
2022/05/03 12:03:46;;;;;;;9.43;5.80;;;;;;;21.23;40.63;101825.56;5047468;28;20412;-53
2022/05/03 12:06:16;;;;;;;8.73;5.88;;;;;;;21.13;41.92;101822.06;5046708;28;20073;-53
2022/05/03 12:08:44;;;;;;;10.88;5.70;;;;;;;21.05;41.35;101814.75;5050825;28;20041;-50
2022/05/03 12:11:21;;;;;;;10.07;5.90;;;;;;;21.11;41.70;101819.53;5045774;28;20052;-52
2022/05/03 12:13:49;;;;;;;10.70;6.05;;;;;;;21.14;42.46;101813.06;5049871;28;20515;-53
2022/05/03 12:16:24;;;;;;;9.68;6.63;;;;;;;20.98;42.55;101819.00;5053849;28;20563;-53
2022/05/03 12:18:53;;;;;;;10.02;6.63;;;;;;;20.75;43.10;101809.50;5050692;28;20052;-54
2022/05/03 12:21:28;;;;;;;10.27;7.22;;;;;;;21.34;42.91;101813.84;5054881;28;20087;-53
2022/05/03 12:24:01;;;;;;;12.90;7.13;;;;;;;21.34;41.19;101806.63;5054956;28;20131;-54